Time;durP1;ratioP1;P1;durP2;ratioP2;P2;SDS_P1;SDS_P2;PMS_P1;PMS_P2;Temp;Humidity;BMP_temperature;BMP_pressure;BME280_temperature;BME280_humidity;BME280_pressure;Samples;Min_cycle;Max_cycle;Signal;HPM_P1;HPM_P2
2024/04/01 00:00:25;;;;;;;;;;;;;;;11.99;100.00;99325.06;4970360;28;1918;-65
2024/04/01 00:02:51;;;;;;;;;;;;;;;11.99;100.00;99335.81;4973355;28;1441;-66
2024/04/01 00:05:16;;;;;;;;;;;;;;;11.98;100.00;99332.31;4972315;28;1517;-65
2024/04/01 00:07:45;;;;;;;;;;;;;;;11.94;100.00;99328.53;4970789;28;1298;-65
2024/04/01 00:10:10;;;;;;;;;;;;;;;11.95;100.00;99330.13;4971879;28;1314;-65
2024/04/01 00:12:35;;;;;;;;;;;;;;;11.93;100.00;99326.91;4971262;28;1136;-64
2024/04/01 00:15:01;;;;;;;;;;;;;;;11.96;100.00;99332.59;4969707;28;1270;-64
2024/04/01 00:17:26;;;;;;;;;;;;;;;11.93;100.00;99327.69;4970925;28;1382;-64
2024/04/01 00:19:51;;;;;;;;;;;;;;;11.90;100.00;99333.56;4971947;28;1977;-65
2024/04/01 00:22:17;;;;;;;;;;;;;;;11.89;100.00;99321.22;4974148;28;848;-65
2024/04/01 00:24:42;;;;;;;;;;;;;;;11.84;100.00;99320.41;4945527;28;1275;-65
2024/04/01 00:27:10;;;;;;;;;;;;;;;11.88;100.00;99313.44;4961459;28;1235;-64
2024/04/01 00:29:35;;;;;;;;;;;;;;;11.83;100.00;99308.84;4965295;28;1002;-65
2024/04/01 00:32:00;;;;;;;;;;;;;;;11.78;100.00;99301.56;4971068;28;1033;-65
2024/04/01 00:34:26;;;;;;;;;;;;;;;11.84;100.00;99302.41;4971776;28;1050;-65
2024/04/01 00:36:51;;;;;;;;;;;;;;;11.74;100.00;99300.50;4954197;28;1322;-65
2024/04/01 00:39:16;;;;;;;;;;;;;;;11.73;100.00;99311.50;4972232;28;1911;-65
2024/04/01 00:41:42;;;;;;;;;;;;;;;11.72;100.00;99307.97;4952912;28;1062;-66
2024/04/01 00:44:07;;;;;;;;;;;;;;;11.70;100.00;99306.66;4967223;28;1148;-64
2024/04/01 00:46:32;;;;;;;;;;;;;;;11.73;100.00;99298.88;4959834;28;1349;-65
2024/04/01 00:48:57;;;;;;;;;;;;;;;11.73;100.00;99293.50;4972959;28;1049;-64
2024/04/01 00:51:23;;;;;;;;;;;;;;;11.68;100.00;99290.75;4979930;28;1285;-65
2024/04/01 00:53:48;;;;;;;;;;;;;;;11.65;100.00;99277.88;4963527;28;1022;-65
2024/04/01 00:56:13;;;;;;;;;;;;;;;11.65;100.00;99275.19;4961696;28;1078;-64
2024/04/01 00:58:39;;;;;;;;;;;;;;;11.64;100.00;99265.53;4955428;28;1911;-65
2024/04/01 01:01:04;;;;;;;;;;;;;;;11.65;100.00;99264.44;4972643;28;1020;-65
2024/04/01 01:03:29;;;;;;;;;;;;;;;11.66;100.00;99251.84;4970980;28;957;-65
2024/04/01 01:05:55;;;;;;;;;;;;;;;11.65;100.00;99258.28;4965981;28;1204;-64
2024/04/01 01:08:20;;;;;;;;;;;;;;;11.66;100.00;99263.38;4979261;28;982;-64
2024/04/01 01:10:45;;;;;;;;;;;;;;;11.65;100.00;99269.00;4960773;28;1001;-64
2024/04/01 01:13:11;;;;;;;;;;;;;;;11.67;100.00;99264.19;4959739;28;1166;-64
2024/04/01 01:15:36;;;;;;;;;;;;;;;11.61;100.00;99264.16;4953242;28;1324;-64
2024/04/01 01:18:01;;;;;;;;;;;;;;;11.65;100.00;99267.13;4962379;28;1164;-65
2024/04/01 01:20:26;;;;;;;;;;;;;;;11.64;100.00;99265.53;4963029;28;1965;-65
2024/04/01 01:22:52;;;;;;;;;;;;;;;11.64;100.00;99267.38;4971986;28;1094;-65
2024/04/01 01:25:17;;;;;;;;;;;;;;;11.57;100.00;99268.44;4971949;28;1145;-64
2024/04/01 01:27:42;;;;;;;;;;;;;;;11.59;100.00;99276.22;4971269;28;1093;-64
2024/04/01 01:30:17;;;;;;;;;;;;;;;11.58;100.00;99280.00;4967663;28;1330;-64
2024/04/01 01:32:46;;;;;;;;;;;;;;;11.60;100.00;99272.47;4961876;28;1175;-65
2024/04/01 01:35:12;;;;;;;;;;;;;;;11.57;100.00;99278.38;4966220;28;1066;-65
2024/04/01 01:37:37;;;;;;;;;;;;;;;11.60;100.00;99278.66;4965368;28;1404;-65
2024/04/01 01:40:04;;;;;;;;;;;;;;;11.57;100.00;99284.53;4967377;28;1990;-65
2024/04/01 01:42:29;;;;;;;;;;;;;;;11.57;100.00;99279.19;4963573;28;1209;-65
2024/04/01 01:44:54;;;;;;;;;;;;;;;11.54;100.00;99276.22;4968390;28;1125;-64
2024/04/01 01:47:20;;;;;;;;;;;;;;;11.49;100.00;99282.38;4958627;28;1200;-65
2024/04/01 01:49:45;;;;;;;;;;;;;;;11.56;100.00;99282.13;4967724;28;962;-65
2024/04/01 01:52:10;;;;;;;;;;;;;;;11.50;100.00;99291.22;4952575;28;1152;-65
2024/04/01 01:54:36;;;;;;;;;;;;;;;11.55;100.00;99278.63;4954817;28;1151;-64
2024/04/01 01:57:01;;;;;;;;;;;;;;;11.49;100.00;99285.06;4970688;28;1270;-65
2024/04/01 01:59:26;;;;;;;;;;;;;;;11.50;100.00;99286.66;4971410;28;1906;-64
2024/04/01 02:01:52;;;;;;;;;;;;;;;11.50;100.00;99285.84;4967205;28;1345;-65
2024/04/01 02:04:17;;;;;;;;;;;;;;;11.54;100.00;99292.31;4974981;28;1135;-65
2024/04/01 02:06:42;;;;;;;;;;;;;;;11.49;100.00;99290.44;4979053;28;1170;-64
2024/04/01 02:09:08;;;;;;;;;;;;;;;11.45;100.00;99283.94;4972592;28;1036;-65
2024/04/01 02:11:33;;;;;;;;;;;;;;;11.46;100.00;99284.75;4965518;28;1193;-65
2024/04/01 02:13:58;;;;;;;;;;;;;;;11.46;100.00;99296.31;4961085;28;1201;-65
2024/04/01 02:16:24;;;;;;;;;;;;;;;11.47;100.00;99289.84;4958632;28;1278;-65
2024/04/01 02:18:49;;;;;;;;;;;;;;;11.48;100.00;99285.31;4967963;28;1947;-65
2024/04/01 02:21:18;;;;;;;;;;;;;;;11.44;100.00;99290.38;4972054;28;1273;-64
2024/04/01 02:23:43;;;;;;;;;;;;;;;11.44;100.00;99272.41;4968243;28;1202;-64
2024/04/01 02:26:09;;;;;;;;;;;;;;;11.40;100.00;99275.84;4963366;28;1362;-65
2024/04/01 02:28:35;;;;;;;;;;;;;;;11.44;100.00;99271.59;4968351;28;1242;-65
2024/04/01 02:31:01;;;;;;;;;;;;;;;11.37;100.00;99279.88;4955362;28;1057;-64
2024/04/01 02:33:26;;;;;;;;;;;;;;;11.40;100.00;99278.53;4964596;28;1165;-64
2024/04/01 02:35:51;;;;;;;;;;;;;;;11.37;100.00;99279.88;4971824;28;1323;-65
2024/04/01 02:38:17;;;;;;;;;;;;;;;11.34;100.00;99277.72;4953564;28;1381;-65
2024/04/01 02:40:42;;;;;;;;;;;;;;;11.37;100.00;99277.19;4956876;28;1922;-64
2024/04/01 02:43:08;;;;;;;;;;;;;;;11.35;100.00;99278.53;4967849;28;1175;-67
2024/04/01 02:45:33;;;;;;;;;;;;;;;11.38;100.00;99275.31;4954184;28;1074;-64
2024/04/01 02:47:58;;;;;;;;;;;;;;;11.38;100.00;99288.75;4955754;28;1457;-64
2024/04/01 02:50:23;;;;;;;;;;;;;;;11.32;100.00;99287.88;4967654;28;1388;-65
2024/04/01 02:52:49;;;;;;;;;;;;;;;11.38;100.00;99281.47;4967167;28;1051;-65
2024/04/01 02:55:16;;;;;;;;;;;;;;;11.33;100.00;99275.31;4969862;28;1554;-65
2024/04/01 02:57:43;;;;;;;;;;;;;;;11.34;100.00;99280.41;4973719;28;1609;-64
2024/04/01 03:00:15;;;;;;;;;;;;;;;11.32;100.00;99284.41;4944366;28;1978;-65
2024/04/01 03:02:41;;;;;;;;;;;;;;;11.30;100.00;99276.63;4982729;28;1181;-64
2024/04/01 03:05:06;;;;;;;;;;;;;;;11.29;100.00;99271.50;4971948;28;1113;-64
2024/04/01 03:07:32;;;;;;;;;;;;;;;11.28;100.00;99265.31;4971038;28;946;-64
2024/04/01 03:09:57;;;;;;;;;;;;;;;11.26;100.00;99262.91;4964099;28;1158;-65
2024/04/01 03:12:22;;;;;;;;;;;;;;;11.24;100.00;99266.94;4970618;28;1212;-64
2024/04/01 03:14:48;;;;;;;;;;;;;;;11.24;100.00;99269.63;4953929;28;1103;-64
2024/04/01 03:17:16;;;;;;;;;;;;;;;11.20;100.00;99272.00;4969784;28;987;-64
2024/04/01 03:19:41;;;;;;;;;;;;;;;11.28;100.00;99281.41;4969932;28;1922;-64
2024/04/01 03:22:06;;;;;;;;;;;;;;;11.24;100.00;99283.03;4964787;28;1369;-64
2024/04/01 03:24:31;;;;;;;;;;;;;;;11.22;100.00;99277.91;4971102;28;1116;-64
2024/04/01 03:26:57;;;;;;;;;;;;;;;11.18;100.00;99274.13;4964430;28;1232;-65
2024/04/01 03:29:22;;;;;;;;;;;;;;;11.20;100.00;99268.50;4972056;28;1077;-64
2024/04/01 03:31:48;;;;;;;;;;;;;;;11.22;100.00;99263.69;4974761;28;1248;-65
2024/04/01 03:34:14;;;;;;;;;;;;;;;11.17;100.00;99255.59;4983770;28;999;-65
2024/04/01 03:36:39;;;;;;;;;;;;;;;11.17;100.00;99247.56;4973400;28;1141;-65
2024/04/01 03:39:04;;;;;;;;;;;;;;;11.14;100.00;99250.75;4972888;28;1899;-65
2024/04/01 03:41:30;;;;;;;;;;;;;;;11.13;100.00;99254.50;4973202;28;1110;-64
2024/04/01 03:43:55;;;;;;;;;;;;;;;11.16;100.00;99262.84;4974688;28;1086;-64
2024/04/01 03:46:21;;;;;;;;;;;;;;;11.16;100.00;99262.84;4973878;28;1228;-64
2024/04/01 03:48:46;;;;;;;;;;;;;;;11.16;100.00;99262.03;4983022;28;1046;-64
2024/04/01 03:51:11;;;;;;;;;;;;;;;11.14;100.00;99262.28;4976329;28;1303;-65
2024/04/01 03:53:37;;;;;;;;;;;;;;;11.12;100.00;99258.25;4973396;28;1088;-65
2024/04/01 03:56:02;;;;;;;;;;;;;;;11.11;100.00;99248.59;4956764;28;1117;-65
2024/04/01 03:58:27;;;;;;;;;;;;;;;11.09;100.00;99260.38;4972038;28;1906;-64
2024/04/01 04:00:53;;;;;;;;;;;;;;;11.13;100.00;99260.66;4974098;28;1251;-65
2024/04/01 04:03:18;;;;;;;;;;;;;;;11.10;100.00;99258.50;4971633;28;1201;-64
2024/04/01 04:05:43;;;;;;;;;;;;;;;11.06;100.00;99252.84;4971719;28;1179;-65
2024/04/01 04:08:09;;;;;;;;;;;;;;;11.07;100.00;99249.13;4972249;28;1181;-64
2024/04/01 04:10:34;;;;;;;;;;;;;;;11.08;100.00;99250.72;4963621;28;1030;-65
2024/04/01 04:12:59;;;;;;;;;;;;;;;11.03;100.00;99261.44;4970686;28;1237;-64
2024/04/01 04:15:24;;;;;;;;;;;;;;;11.07;100.00;99257.16;4964608;28;1383;-65
2024/04/01 04:17:50;;;;;;;;;;;;;;;11.09;100.00;99271.13;4956080;28;1230;-65
2024/04/01 04:20:15;;;;;;;;;;;;;;;11.04;100.00;99265.69;4956566;28;1912;-65
2024/04/01 04:22:40;;;;;;;;;;;;;;;11.02;100.00;99265.16;4957880;28;1171;-64
2024/04/01 04:25:06;;;;;;;;;;;;;;;11.04;100.00;99262.22;4964163;28;1308;-64
2024/04/01 04:27:31;;;;;;;;;;;;;;;11.03;100.00;99269.47;4966429;28;1278;-65
2024/04/01 04:29:57;;;;;;;;;;;;;;;11.02;100.00;99275.91;4959552;28;1148;-65
2024/04/01 04:32:22;;;;;;;;;;;;;;;11.04;100.00;99271.06;4959190;28;1431;-64
2024/04/01 04:34:47;;;;;;;;;;;;;;;11.02;100.00;99262.47;4967962;28;1218;-65
2024/04/01 04:37:13;;;;;;;;;;;;;;;11.01;100.00;99266.22;4964731;28;1175;-65
2024/04/01 04:39:38;;;;;;;;;;;;;;;11.02;100.00;99270.53;4956505;28;1915;-64
2024/04/01 04:42:03;;;;;;;;;;;;;;;11.02;100.00;99270.53;4965898;28;1262;-64
2024/04/01 04:44:29;;;;;;;;;;;;;;;11.00;100.00;99269.16;4955502;28;1357;-64
2024/04/01 04:46:54;;;;;;;;;;;;;;;11.02;100.00;99272.41;4957328;28;1278;-64
2024/04/01 04:49:19;;;;;;;;;;;;;;;10.99;100.00;99272.94;4964340;28;1097;-64
2024/04/01 04:51:45;;;;;;;;;;;;;;;11.01;100.00;99279.63;4956976;28;1342;-65
2024/04/01 04:54:10;;;;;;;;;;;;;;;10.96;100.00;99279.59;4962678;28;1515;-65
2024/04/01 04:56:35;;;;;;;;;;;;;;;11.01;100.00;99284.19;4968127;28;1321;-65
2024/04/01 04:59:01;;;;;;;;;;;;;;;10.97;100.00;99283.91;4954141;28;1978;-65
2024/04/01 05:01:26;;;;;;;;;;;;;;;11.00;100.00;99272.66;4964295;28;1561;-64
2024/04/01 05:03:51;;;;;;;;;;;;;;;10.98;100.00;99274.00;4973641;28;1176;-64
2024/04/01 05:06:19;;;;;;;;;;;;;;;10.96;100.00;99276.94;4971897;28;1177;-65
2024/04/01 05:08:45;;;;;;;;;;;;;;;10.99;100.00;99273.72;4972068;28;1313;-65
2024/04/01 05:11:10;;;;;;;;;;;;;;;10.98;100.00;99274.78;4976820;28;992;-65
2024/04/01 05:13:36;;;;;;;;;;;;;;;10.99;100.00;99272.94;4971021;28;1443;-64
2024/04/01 05:16:03;;;;;;;;;;;;;;;10.99;100.00;99276.41;4972448;28;1132;-64
2024/04/01 05:18:28;;;;;;;;;;;;;;;11.02;100.00;99267.06;4967054;28;1960;-65
2024/04/01 05:20:54;;;;;;;;;;;;;;;10.93;100.00;99266.72;4966175;28;1325;-64
2024/04/01 05:23:19;;;;;;;;;;;;;;;10.96;100.00;99268.88;4955995;28;1021;-65
2024/04/01 05:25:45;;;;;;;;;;;;;;;11.01;100.00;99276.16;4967824;28;1058;-64
2024/04/01 05:28:10;;;;;;;;;;;;;;;10.97;100.00;99277.72;4964862;28;1084;-64
2024/04/01 05:30:36;;;;;;;;;;;;;;;10.97;100.00;99273.19;4959913;28;1205;-64
2024/04/01 05:33:01;;;;;;;;;;;;;;;10.95;100.00;99272.63;4971498;28;1123;-64
2024/04/01 05:35:32;;;;;;;;;;;;;;;11.02;100.00;99278.56;4965312;28;1309;-65
2024/04/01 05:37:58;;;;;;;;;;;;;;;10.98;100.00;99279.34;4950362;28;1087;-64
2024/04/01 05:40:24;;;;;;;;;;;;;;;10.93;100.00;99276.66;4958218;28;1988;-64
2024/04/01 05:42:49;;;;;;;;;;;;;;;10.94;100.00;99281.75;4977287;28;1240;-64
2024/04/01 05:45:14;;;;;;;;;;;;;;;10.95;100.00;99288.72;4972548;28;1260;-64
2024/04/01 05:47:40;;;;;;;;;;;;;;;10.96;100.00;99286.84;4968372;28;1021;-64
2024/04/01 05:50:05;;;;;;;;;;;;;;;10.97;100.00;99293.81;4966230;28;1086;-64
2024/04/01 05:52:31;;;;;;;;;;;;;;;10.94;100.00;99292.47;4968564;28;1109;-64
2024/04/01 05:54:56;;;;;;;;;;;;;;;10.92;100.00;99294.59;4958391;28;1054;-64
2024/04/01 05:57:21;;;;;;;;;;;;;;;10.95;100.00;99291.38;4969228;28;1211;-65
2024/04/01 05:59:48;;;;;;;;;;;;;;;10.98;100.00;99295.44;4969076;28;1907;-64
2024/04/01 06:02:13;;;;;;;;;;;;;;;10.94;100.00;99297.84;4967316;28;1318;-64
2024/04/01 06:04:38;;;;;;;;;;;;;;;10.95;100.00;99293.28;4968840;28;1384;-64
2024/04/01 06:07:04;;;;;;;;;;;;;;;10.94;100.00;99299.69;4952407;28;1385;-65
2024/04/01 06:09:32;;;;;;;;;;;;;;;10.96;100.00;99309.13;4964062;28;1114;-64
2024/04/01 06:11:57;;;;;;;;;;;;;;;10.98;100.00;99306.16;4967462;28;1259;-65
2024/04/01 06:14:23;;;;;;;;;;;;;;;11.00;100.00;99312.91;4955758;28;1095;-64
2024/04/01 06:16:48;;;;;;;;;;;;;;;10.95;100.00;99317.41;4963906;28;1153;-64
2024/04/01 06:19:13;;;;;;;;;;;;;;;10.98;100.00;99311.53;4970193;28;1952;-64
2024/04/01 06:21:39;;;;;;;;;;;;;;;10.98;100.00;99311.53;4965714;28;1174;-64
2024/04/01 06:24:04;;;;;;;;;;;;;;;10.94;100.00;99319.31;4966943;28;1014;-64
2024/04/01 06:26:29;;;;;;;;;;;;;;;10.97;100.00;99320.63;4971722;28;1265;-64
2024/04/01 06:28:54;;;;;;;;;;;;;;;10.96;100.00;99322.53;4948509;28;1352;-64
2024/04/01 06:31:20;;;;;;;;;;;;;;;10.97;100.00;99326.00;4960505;28;1113;-65
2024/04/01 06:33:45;;;;;;;;;;;;;;;10.96;100.00;99324.41;4965960;28;1131;-64
2024/04/01 06:36:11;;;;;;;;;;;;;;;10.99;100.00;99323.91;4967259;28;1209;-65
2024/04/01 06:38:36;;;;;;;;;;;;;;;10.97;100.00;99326.84;4970983;28;1910;-64
2024/04/01 06:41:02;;;;;;;;;;;;;;;10.98;100.00;99323.06;4960015;28;1521;-64
2024/04/01 06:43:27;;;;;;;;;;;;;;;10.97;100.00;99326.00;4968468;28;971;-64
2024/04/01 06:45:56;;;;;;;;;;;;;;;10.97;100.00;99337.56;4967072;28;1065;-64
2024/04/01 06:48:22;;;;;;;;;;;;;;;11.02;100.00;99337.59;4962382;28;1158;-64
2024/04/01 06:50:47;;;;;;;;;;;;;;;11.02;100.00;99340.28;4966486;28;1447;-64
2024/04/01 06:53:12;;;;;;;;;;;;;;;11.01;100.00;99344.00;4966314;28;1122;-64
2024/04/01 06:55:37;;;;;;;;;;;;;;;11.03;100.00;99351.81;4965586;28;1353;-64
2024/04/01 06:58:03;;;;;;;;;;;;;;;11.03;100.00;99349.13;4965538;28;1300;-64
2024/04/01 07:00:28;;;;;;;;;;;;;;;11.01;100.00;99352.06;4950985;28;1911;-65
2024/04/01 07:02:53;;;;;;;;;;;;;;;11.00;100.00;99355.00;4969294;28;1247;-64
2024/04/01 07:05:18;;;;;;;;;;;;;;;11.03;100.00;99352.63;4975314;28;1189;-65
2024/04/01 07:07:44;;;;;;;;;;;;;;;11.01;100.00;99354.75;4963016;28;1127;-64
2024/04/01 07:10:11;;;;;;;;;;;;;;;10.98;100.00;99355.25;4971180;28;1188;-64
2024/04/01 07:12:36;;;;;;;;;;;;;;;11.02;100.00;99360.94;4972945;28;1111;-64
2024/04/01 07:15:01;;;;;;;;;;;;;;;11.03;100.00;99358.00;4967327;28;1249;-64
2024/04/01 07:17:26;;;;;;;;;;;;;;;11.06;100.00;99367.41;4966889;28;1173;-65
2024/04/01 07:19:52;;;;;;;;;;;;;;;11.04;100.00;99364.97;4974229;28;1934;-63
2024/04/01 07:22:18;;;;;;;;;;;;;;;11.03;100.00;99365.22;4971391;28;1322;-64
2024/04/01 07:24:43;;;;;;;;;;;;;;;11.06;100.00;99376.25;4961094;28;1047;-64
2024/04/01 07:27:08;;;;;;;;;;;;;;;11.07;100.00;99380.56;4972722;28;1167;-64
2024/04/01 07:29:34;;;;;;;;;;;;;;;11.06;100.00;99372.78;4971800;28;1046;-64
2024/04/01 07:31:59;;;;;;;;;;;;;;;11.06;100.00;99386.19;4971760;28;1255;-64
2024/04/01 07:34:24;;;;;;;;;;;;;;;11.05;100.00;99384.56;4972002;28;1267;-64
2024/04/01 07:36:50;;;;;;;;;;;;;;;11.07;100.00;99390.47;4958357;28;1136;-65
2024/04/01 07:39:16;;;;;;;;;;;;;;;11.07;100.00;99391.31;4964196;28;1973;-64
2024/04/01 07:41:41;;;;;;;;;;;;;;;11.09;100.00;99394.53;4969307;28;1274;-64
2024/04/01 07:44:07;;;;;;;;;;;;;;;11.08;100.00;99390.22;4973756;28;1082;-64
2024/04/01 07:46:32;;;;;;;;;;;;;;;11.07;100.00;99395.84;4969148;28;1348;-64
2024/04/01 07:48:57;;;;;;;;;;;;;;;11.07;100.00;99401.19;4968555;28;1266;-64
2024/04/01 07:51:23;;;;;;;;;;;;;;;11.08;100.00;99398.25;4971953;28;1429;-64
2024/04/01 07:53:48;;;;;;;;;;;;;;;11.08;100.00;99398.25;4972680;28;1259;-64
2024/04/01 07:56:14;;;;;;;;;;;;;;;11.07;100.00;99407.41;4970095;28;1237;-64
2024/04/01 07:58:39;;;;;;;;;;;;;;;11.09;100.00;99410.63;4965180;28;1976;-64
2024/04/01 08:01:04;;;;;;;;;;;;;;;11.15;100.00;99406.13;4972209;28;1011;-64
2024/04/01 08:03:30;;;;;;;;;;;;;;;11.10;100.00;99416.78;4973683;28;1385;-64
2024/04/01 08:05:55;;;;;;;;;;;;;;;11.11;100.00;99425.66;4973708;28;1206;-64
2024/04/01 08:08:20;;;;;;;;;;;;;;;11.11;100.00;99429.16;4970680;28;1274;-64
2024/04/01 08:10:46;;;;;;;;;;;;;;;11.16;100.00;99431.06;4953080;28;1096;-64
2024/04/01 08:13:11;;;;;;;;;;;;;;;11.13;100.00;99434.25;4978106;28;1080;-64
2024/04/01 08:15:36;;;;;;;;;;;;;;;11.14;100.00;99438.56;4971492;28;1161;-64
2024/04/01 08:18:02;;;;;;;;;;;;;;;11.16;100.00;99447.16;4971538;28;1109;-64
2024/04/01 08:20:28;;;;;;;;;;;;;;;11.16;100.00;99447.97;4948172;28;1907;-64
2024/04/01 08:22:53;;;;;;;;;;;;;;;11.12;100.00;99460.28;4969933;28;1146;-64
2024/04/01 08:25:19;;;;;;;;;;;;;;;11.13;100.00;99459.22;4958040;28;1100;-64
2024/04/01 08:27:44;;;;;;;;;;;;;;;11.11;100.00;99473.97;4963713;28;1191;-64
2024/04/01 08:30:09;;;;;;;;;;;;;;;11.18;100.00;99472.69;4968920;28;1210;-64
2024/04/01 08:32:35;;;;;;;;;;;;;;;11.17;100.00;99481.78;4958379;28;1301;-64
2024/04/01 08:35:00;;;;;;;;;;;;;;;11.23;100.00;99496.06;4963899;28;1291;-64
2024/04/01 08:37:26;;;;;;;;;;;;;;;11.22;100.00;99502.50;4971771;28;1121;-64
2024/04/01 08:39:51;;;;;;;;;;;;;;;11.19;100.00;99513.75;4952002;28;1979;-64
2024/04/01 08:42:18;;;;;;;;;;;;;;;11.17;100.00;99505.13;4953415;28;1369;-63
2024/04/01 08:44:43;;;;;;;;;;;;;;;11.20;100.00;99505.44;4971661;28;1081;-64
2024/04/01 08:47:08;;;;;;;;;;;;;;;11.23;100.00;99512.16;4951591;28;1177;-64
2024/04/01 08:49:34;;;;;;;;;;;;;;;11.20;100.00;99523.41;4954786;28;1153;-64
2024/04/01 08:51:59;;;;;;;;;;;;;;;11.22;100.00;99524.78;4965576;28;1166;-64
2024/04/01 08:54:24;;;;;;;;;;;;;;;11.23;100.00;99521.03;4951708;28;1356;-64
2024/04/01 08:56:50;;;;;;;;;;;;;;;11.21;100.00;99531.22;4972447;28;1206;-64
2024/04/01 08:59:16;;;;;;;;;;;;;;;11.26;100.00;99539.31;4967376;28;2430;-64
2024/04/01 09:01:42;;;;;;;;;;;;;;;11.22;100.00;99545.44;4968955;28;1318;-64
2024/04/01 09:04:08;;;;;;;;;;;;;;;11.23;100.00;99537.13;4967670;28;1412;-64
2024/04/01 09:06:33;;;;;;;;;;;;;;;11.23;100.00;99525.59;4968019;28;1247;-64
2024/04/01 09:08:58;;;;;;;;;;;;;;;11.22;100.00;99527.47;4969266;28;1360;-64
2024/04/01 09:11:24;;;;;;;;;;;;;;;11.22;100.00;99524.78;4968438;28;1303;-65
2024/04/01 09:13:49;;;;;;;;;;;;;;;11.22;100.00;99529.31;4971653;28;1405;-64
2024/04/01 09:16:21;;;;;;;;;;;;;;;11.20;100.00;99516.16;4968648;28;1266;-64
2024/04/01 09:18:46;;;;;;;;;;;;;;;11.18;100.00;99512.94;4972333;28;1972;-64
2024/04/01 09:21:12;;;;;;;;;;;;;;;11.23;100.00;99509.50;4971601;28;1090;-64
2024/04/01 09:23:43;;;;;;;;;;;;;;;11.23;100.00;99514.84;4969653;28;1282;-64
2024/04/01 09:26:08;;;;;;;;;;;;;;;11.23;100.00;99517.53;4966541;28;1278;-64
2024/04/01 09:28:33;;;;;;;;;;;;;;;11.23;100.00;99517.53;4968423;28;1454;-64
2024/04/01 09:30:59;;;;;;;;;;;;;;;11.24;100.00;99514.59;4970549;28;1375;-64
2024/04/01 09:33:24;;;;;;;;;;;;;;;11.27;100.00;99522.16;4970475;28;1374;-64
2024/04/01 09:35:49;;;;;;;;;;;;;;;11.25;100.00;99531.50;4967243;28;1078;-64
2024/04/01 09:38:15;;;;;;;;;;;;;;;11.26;100.00;99538.50;4954502;28;1151;-64
2024/04/01 09:40:40;;;;;;;;;;;;;;;11.25;100.00;99543.06;4955242;28;1977;-64
2024/04/01 09:43:06;;;;;;;;;;;;;;;11.27;100.00;99542.81;4966035;28;1137;-64
2024/04/01 09:45:38;;;;;;;;;;;;;;;11.24;100.00;99548.69;4962658;28;1118;-64
2024/04/01 09:48:04;;;;;;;;;;;;;;;11.23;100.00;99541.69;4960860;28;1155;-65
2024/04/01 09:50:29;;;;;;;;;;;;;;;11.25;100.00;99543.06;4959969;28;1020;-64
2024/04/01 09:52:55;;;;;;;;;;;;;;;11.23;100.00;99544.38;4953374;28;1208;-64
2024/04/01 09:55:20;;;;;;;;;;;;;;;11.26;100.00;99549.22;4956349;28;1042;-64
2024/04/01 09:57:46;;;;;;;;;;;;;;;11.18;100.00;99545.13;4959806;28;1007;-64
2024/04/01 10:00:17;;;;;;;;;;;;;;;11.17;100.00;99546.19;4965404;28;1966;-64
2024/04/01 10:02:46;;;;;;;;;;;;;;;11.30;100.00;99546.84;4952998;28;1277;-64
2024/04/01 10:05:26;;;;;;;;;;;;;;;11.24;100.00;99554.06;4970760;28;1090;-64
2024/04/01 10:07:58;;;;;;;;;;;;;;;11.25;100.00;99558.34;4968407;28;1249;-64
2024/04/01 10:10:43;;;;;;;;;;;;;;;11.25;100.00;99556.50;4966105;28;1061;-64
2024/04/01 10:13:19;;;;;;;;;;;;;;;11.32;100.00;99561.63;4961581;28;1372;-64
2024/04/01 10:15:48;;;;;;;;;;;;;;;11.34;100.00;99564.06;4964912;28;1223;-64
2024/04/01 10:18:26;;;;;;;;;;;;;;;11.35;100.00;99563.81;4965647;28;1244;-64
2024/04/01 10:20:51;;;;;;;;;;;;;;;11.37;100.00;99564.41;4966776;28;1914;-64
2024/04/01 10:23:16;;;;;;;;;;;;;;;11.38;100.00;99557.94;4965208;28;1377;-64
2024/04/01 10:26:00;;;;;;;;;;;;;;;11.42;100.00;99558.25;4966416;28;1129;-64
2024/04/01 10:28:31;;;;;;;;;;;;;;;11.46;100.00;99566.59;4955694;28;1266;-64
2024/04/01 10:31:15;;;;;;;;;;;;;;;11.47;100.00;99565.56;4966992;28;1063;-64
2024/04/01 10:33:43;;;;;;;;;;;;;;;11.48;100.00;99561.81;4969022;28;1317;-64
2024/04/01 10:36:10;;;;;;;;;;;;;;;11.48;100.00;99567.19;4969048;28;1416;-65
2024/04/01 10:38:44;;;;;;;;;;;;;;;11.48;100.00;99562.63;4971913;28;1373;-64
2024/04/01 10:41:15;;;;;;;;;;;;;;;11.49;100.00;99556.19;4964442;28;1034;-64
2024/04/01 10:44:02;;;;;;;;;;;;;;;11.51;100.00;99561.31;4970739;28;1131;-64
2024/04/01 10:46:46;;;;;;;;;;;;;;;11.48;100.00;99557.25;4975387;28;1310;-64
2024/04/01 10:49:12;;;;;;;;;;;;;;;11.50;100.00;99568.53;4962452;28;1367;-64
2024/04/01 10:51:56;;;;;;;;;;;;;;;11.55;100.00;99573.13;4968295;28;1142;-64
2024/04/01 10:54:21;;;;;;;;;;;;;;;11.55;100.00;99576.66;4963624;28;1375;-64
2024/04/01 10:56:47;;;;;;;;;;;;;;;11.57;100.00;99581.75;4949896;28;1468;-64
2024/04/01 10:59:31;;;;;;;;;;;;;;;11.57;100.00;99579.88;4968007;28;1898;-65
2024/04/01 11:02:05;;;;;;;;;;;;;;;11.58;100.00;99591.44;4969732;28;1062;-64
2024/04/01 11:04:43;;;;;;;;;;;;;;;11.58;100.00;99603.00;4967464;28;1137;-64
2024/04/01 11:07:27;;;;;;;;;;;;;;;11.57;100.00;99605.94;4961950;28;1529;-64
2024/04/01 11:09:55;;;;;;;;;;;;;;;11.58;100.00;99616.41;4961778;28;1146;-64
2024/04/01 11:12:23;;;;;;;;;;;;;;;11.59;100.00;99614.53;4966177;28;1189;-64
2024/04/01 11:14:49;;;;;;;;;;;;;;;11.60;100.00;99621.53;4963575;28;1047;-64
2024/04/01 11:17:15;;;;;;;;;;;;;;;11.63;100.00;99628.28;4965636;28;1334;-65
2024/04/01 11:19:59;;;;;;;;;;;;;;;11.63;100.00;99626.41;4964107;28;1960;-64
2024/04/01 11:22:30;;;;;;;;;;;;;;;11.61;100.00;99631.22;4966955;28;1125;-64
2024/04/01 11:25:00;;;;;;;;;;;;;;;11.63;100.00;99617.53;4966326;28;1377;-64
2024/04/01 11:27:30;;;;;;;;;;;;;;;11.64;100.00;99621.81;4948474;28;1194;-64
2024/04/01 11:29:55;;;;;;;;;;;;;;;11.65;100.00;99613.50;4957749;28;1372;-64
2024/04/01 11:32:21;;;;;;;;;;;;;;;11.66;100.00;99625.88;4967650;28;1213;-64
2024/04/01 11:35:02;;;;;;;;;;;;;;;11.65;100.00;99624.25;4958411;28;1255;-64
2024/04/01 11:37:38;;;;;;;;;;;;;;;11.68;100.00;99629.13;4964977;28;1209;-64
2024/04/01 11:40:05;;;;;;;;;;;;;;;11.70;100.00;99627.00;4967032;28;1971;-64
2024/04/01 11:42:31;;;;;;;;;;;;;;;11.71;100.00;99635.88;4963948;28;1053;-64
2024/04/01 11:44:56;;;;;;;;;;;;;;;11.71;100.00;99636.69;4958768;28;1074;-64
2024/04/01 11:47:22;;;;;;;;;;;;;;;11.75;100.00;99639.69;4966481;28;1431;-64
2024/04/01 11:49:47;;;;;;;;;;;;;;;11.74;100.00;99648.78;4947699;28;1167;-64
2024/04/01 11:52:13;;;;;;;;;;;;;;;11.75;100.00;99651.22;4968727;28;1215;-64
2024/04/01 11:54:38;;;;;;;;;;;;;;;11.76;100.00;99650.16;4963525;28;1121;-64
2024/04/01 11:57:04;;;;;;;;;;;;;;;11.80;100.00;99653.13;4970778;28;1646;-64
2024/04/01 11:59:29;;;;;;;;;;;;;;;11.83;100.00;99654.50;4969533;28;1898;-64
2024/04/01 12:01:55;;;;;;;;;;;;;;;11.84;100.00;99650.78;4974793;28;1179;-65
2024/04/01 12:04:20;;;;;;;;;;;;;;;11.83;100.00;99658.03;4971488;28;1182;-65
2024/04/01 12:06:46;;;;;;;;;;;;;;;11.65;100.00;99666.41;4972299;28;1054;-64
2024/04/01 12:09:12;;;;;;;;;;;;;;;11.83;100.00;99668.78;4956488;28;1020;-64
2024/04/01 12:11:41;;;;;;;;;;;;;;;11.89;100.00;99667.75;4968668;28;1162;-64
2024/04/01 12:14:06;;;;;;;;;;;;;;;11.91;100.00;99662.94;4969200;28;1302;-64
2024/04/01 12:16:32;;;;;;;;;;;;;;;11.92;100.00;99672.63;4107208;28;10001009;-64
2024/04/01 12:18:57;;;;;;;;;;;;;;;11.93;100.00;99663.50;4986591;28;1914;-64
2024/04/01 12:21:23;;;;;;;;;;;;;;;11.96;100.00;99664.88;4984173;28;1300;-64
2024/04/01 12:23:49;;;;;;;;;;;;;;;11.97;100.00;99669.19;4986700;28;1114;-65
2024/04/01 12:26:15;;;;;;;;;;;;;;;11.97;100.00;99666.50;4117620;28;10001002;-65
2024/04/01 12:28:41;;;;;;;;;;;;;;;12.00;100.00;99676.75;4986225;28;1210;-64
2024/04/01 12:31:07;;;;;;;;;;;;;;;11.98;100.00;99668.16;4984211;28;1109;-64
2024/04/01 12:33:33;;;;;;;;;;;;;;;11.95;100.00;99672.16;4118610;28;10000800;-64
2024/04/01 12:35:59;;;;;;;;;;;;;;;12.01;100.00;99688.31;4992289;28;1252;-65
2024/04/01 12:38:24;;;;;;;;;;;;;;;11.92;100.00;99691.44;4989505;28;1188;-65
2024/04/01 12:40:50;;;;;;;;;;;;;;;11.94;100.00;99689.31;4991627;28;1907;-64